Ronco, PA (15476)

7:57 PM EDT on July 27, 2016 (GMT -0400)
HillTop Rices Landing | | Change Station

Elev 1118 ft 39.93 °N, 79.95 °W | Updated 13 seconds ago

Overcast
Overcast
83.9 °F
Feels Like 90 °F
N
0.0
Wind Variable Wind from WSW
Gusts 0.0 mph

Today
High -- | Low -- °F
--% Chance of Precip.
Yesterday
High -- | Low -- °F
Precip. -- in
Pressure 29.96 in
Visibility 10.0 miles
Clouds Few 5000 ft
Mostly Cloudy 7000 ft
Overcast 8500 ft
Heat Index 90 °F
Dew Point 72 °F
Humidity 68%
Rainfall 0.00 in
Snow Depth Not available.
6:14 AM 8:37 PM
Last Quarter, 38% visible
METAR KMGW 272353Z 00000KT 10SM FEW050 BKN070 OVC085 25/22 A2999 RMK AO2 RAB22E48 SLP143 P0001 60007 T02500217 10311 20250 53003
Pressure 29.96 in
Visibility 10.0 miles
Clouds Few 5000 ft
Mostly Cloudy 7000 ft
Overcast 8500 ft
Heat Index 90 °F
Dew Point 72 °F
Humidity 68%
Rainfall 0.00 in
Snow Depth Not available.
6:14 AM 8:37 PM
Last Quarter, 38% visible
METAR KMGW 272353Z 00000KT 10SM FEW050 BKN070 OVC085 25/22 A2999 RMK AO2 RAB22E48 SLP143 P0001 60007 T02500217 10311 20250 53003

10-Day Weather Forecast

Almanac

Astronomy

Jul. 27, 2016 Rise Set
Actual Time
Civil Twilight
Nautical Twilight
Astronomical Twilight
Moon
Length of Visible Light
Length of Day
Tomorrow will be .
, % of the Moon is Illuminated

Today's Extremes

State Highs State Lows

Community

WunderPhotos

Upload Photos

1,927,958 photos uploaded!

WunderBlog® & News

Nearby

Air Quality

  Air Quality AQ Index Pollutant
Not available.

Snow Depth

Station Depth Elevation

Earthquake Activity

City Distance Mag. Time & Date
Minimum magnitude displayed is 2.5.

Coastal Water Temperatures

Place Temperature

Stations

Nearby Weather Stations

Station Location Temp. Windchill Dew Point Humidity Wind Precip. Elev Updated Type
                   

Watches & Warnings

There are currently no watches in effect.